Time;durP1;ratioP1;P1;durP2;ratioP2;P2;SDS_P1;SDS_P2;PMS_P1;PMS_P2;Temp;Humidity;BMP_temperature;BMP_pressure;BME280_temperature;BME280_humidity;BME280_pressure;Samples;Min_cycle;Max_cycle;Signal;HPM_P1;HPM_P2
2022/09/05 00:00:00;;;;;;;9.45;3.90;;;24.00;99.90;;;;;;5091763;28;20032;-88
2022/09/05 00:02:41;;;;;;;9.43;4.00;;;23.90;99.90;;;;;;5092229;28;20039;-88
2022/09/05 00:05:25;;;;;;;10.18;4.10;;;24.00;99.90;;;;;;5091698;28;20052;-88
2022/09/05 00:08:18;;;;;;;10.35;3.75;;;23.90;99.90;;;;;;5092078;28;20122;-88
2022/09/05 00:10:59;;;;;;;10.88;3.88;;;24.00;99.90;;;;;;5073901;28;20032;-87
2022/09/05 00:13:29;;;;;;;11.65;4.22;;;23.90;99.90;;;;;;5074244;28;20552;-88
2022/09/05 00:16:16;;;;;;;10.77;3.85;;;23.90;1.00;;;;;;5092203;28;20052;-88
2022/09/05 00:18:54;;;;;;;10.27;3.95;;;23.90;99.90;;;;;;5092072;28;20065;-88
2022/09/05 00:21:31;;;;;;;12.43;4.03;;;23.80;99.90;;;;;;5091615;28;20087;-87
2022/09/05 00:24:24;;;;;;;9.90;3.60;;;23.90;99.90;;;;;;5073771;28;20043;-88
2022/09/05 00:26:54;;;;;;;9.32;3.80;;;23.80;99.90;;;;;;5091974;28;20443;-88
2022/09/05 00:29:35;;;;;;;8.48;3.42;;;23.80;99.90;;;;;;5091914;28;20442;-87
2022/09/05 00:32:12;;;;;;;9.82;4.18;;;23.90;99.90;;;;;;5073843;28;20046;-88
2022/09/05 00:35:02;;;;;;;9.93;3.70;;;23.80;99.90;;;;;;5073405;28;20021;-88
2022/09/05 00:37:33;;;;;;;12.32;4.03;;;23.80;99.90;;;;;;5091552;28;20043;-88
2022/09/05 00:40:48;;;;;;;6.80;3.08;;;23.80;99.90;;;;;;5091994;28;20036;-87
2022/09/05 00:43:23;;;;;;;11.30;3.67;;;23.80;99.90;;;;;;5073725;28;20044;-89
2022/09/05 00:46:02;;;;;;;9.68;3.65;;;23.70;99.90;;;;;;5091692;28;20081;-89
2022/09/05 00:48:48;;;;;;;10.88;4.05;;;23.70;99.90;;;;;;5074163;28;20407;-88
2022/09/05 00:51:54;;;;;;;8.32;3.38;;;23.80;1.00;;;;;;5073637;28;20338;-88
2022/09/05 00:54:22;;;;;;;5.85;3.42;;;23.70;99.90;;;;;;5009332;28;20026;-88
2022/09/05 00:57:17;;;;;;;10.57;4.10;;;23.70;99.90;;;;;;5009628;28;20050;-88
2022/09/05 01:00:17;;;;;;;10.32;3.85;;;23.70;99.90;;;;;;4993128;28;20026;-88
2022/09/05 01:03:10;;;;;;;11.15;4.10;;;23.50;99.90;;;;;;5006766;28;20065;-88
2022/09/05 01:06:01;;;;;;;8.98;3.67;;;23.60;1.00;;;;;;5013074;28;20030;-88
2022/09/05 01:08:53;;;;;;;8.80;3.50;;;23.60;1.00;;;;;;4996539;28;20038;-88
2022/09/05 01:11:48;;;;;;;8.85;3.92;;;23.60;99.90;;;;;;5012905;28;20026;-88
2022/09/05 01:14:30;;;;;;;8.43;3.65;;;23.60;1.00;;;;;;5012538;28;20032;-88
2022/09/05 01:17:09;;;;;;;11.38;4.22;;;23.60;1.00;;;;;;5012690;28;20026;-88
2022/09/05 01:19:45;;;;;;;9.10;4.07;;;23.60;1.00;;;;;;5012703;28;20038;-87
2022/09/05 01:22:16;;;;;;;11.45;3.70;;;23.60;1.00;;;;;;5012620;28;20040;-87
2022/09/05 01:25:18;;;;;;;9.20;3.88;;;23.60;99.90;;;;;;5012578;28;20117;-88
2022/09/05 01:27:55;;;;;;;8.93;3.63;;;23.50;1.00;;;;;;5036990;28;20079;-88
2022/09/05 01:30:54;;;;;;;8.43;4.22;;;23.50;1.00;;;;;;5094315;28;20016;-87
2022/09/05 01:33:33;;;;;;;10.55;3.90;;;23.40;1.00;;;;;;5094056;28;20100;-88
2022/09/05 01:36:17;;;;;;;13.55;4.07;;;23.30;1.00;;;;;;5094730;28;20084;-88
2022/09/05 01:39:03;;;;;;;8.85;4.10;;;23.30;1.00;;;;;;5094599;28;20032;-88
2022/09/05 01:41:38;;;;;;;13.20;4.50;;;23.40;1.00;;;;;;5094515;28;20031;-87
2022/09/05 01:44:16;;;;;;;8.00;3.92;;;23.40;1.00;;;;;;5094390;28;20038;-88
2022/09/05 01:47:19;;;;;;;7.82;4.03;;;23.30;1.00;;;;;;5094062;28;20035;-87
2022/09/05 01:49:56;;;;;;;9.82;3.78;;;23.30;1.00;;;;;;5094336;28;20020;-88
2022/09/05 01:52:41;;;;;;;12.88;4.32;;;23.20;1.00;;;;;;5094111;28;20031;-88
2022/09/05 01:55:30;;;;;;;13.15;4.00;;;23.30;99.90;;;;;;5094472;28;20028;-87
2022/09/05 01:58:07;;;;;;;12.60;3.97;;;23.30;99.90;;;;;;5094251;28;20063;-87
2022/09/05 02:00:35;;;;;;;9.02;4.10;;;23.30;1.00;;;;;;5094466;28;20103;-88
2022/09/05 02:03:26;;;;;;;11.63;4.20;;;23.20;1.00;;;;;;5094129;28;20020;-88
2022/09/05 02:06:19;;;;;;;11.43;4.63;;;23.30;1.00;;;;;;5075859;28;20069;-88
2022/09/05 02:08:54;;;;;;;9.48;4.32;;;23.30;99.90;;;;;;5094066;28;20493;-87
2022/09/05 02:11:42;;;;;;;10.75;4.30;;;23.30;1.00;;;;;;5093939;28;20120;-88
2022/09/05 02:14:26;;;;;;;12.23;4.10;;;23.20;99.90;;;;;;5075763;28;20024;-87
2022/09/05 02:16:54;;;;;;;9.73;4.13;;;23.20;99.90;;;;;;5093054;28;20035;-87
2022/09/05 02:19:30;;;;;;;7.68;4.13;;;23.20;99.90;;;;;;5093904;28;20020;-88
2022/09/05 02:22:05;;;;;;;9.80;4.00;;;23.30;99.90;;;;;;5093604;28;20103;-88
2022/09/05 02:24:43;;;;;;;8.38;3.90;;;23.20;99.90;;;;;;5093849;28;20024;-88
2022/09/05 02:27:18;;;;;;;10.15;4.43;;;23.20;99.90;;;;;;5075424;28;20031;-87
2022/09/05 02:30:08;;;;;;;9.13;4.38;;;23.30;99.90;;;;;;5093020;28;20431;-88
2022/09/05 02:32:55;;;;;;;11.65;4.55;;;23.30;99.90;;;;;;5093592;28;20527;-88
2022/09/05 02:36:01;;;;;;;11.45;4.47;;;23.30;99.90;;;;;;5093521;28;20024;-87
2022/09/05 02:38:58;;;;;;;12.15;4.25;;;23.30;99.90;;;;;;5092070;28;20070;-88
2022/09/05 02:41:51;;;;;;;10.63;4.80;;;23.30;99.90;;;;;;5093391;28;20383;-87
2022/09/05 02:44:26;;;;;;;10.27;4.28;;;23.30;1.00;;;;;;5093188;28;20069;-88
2022/09/05 02:47:21;;;;;;;12.07;4.70;;;23.30;1.00;;;;;;5093251;28;20107;-87
2022/09/05 02:50:05;;;;;;;14.48;4.57;;;23.20;1.00;;;;;;5093141;28;20101;-88
2022/09/05 02:52:36;;;;;;;7.78;3.60;;;23.20;1.00;;;;;;5091812;28;20415;-88
2022/09/05 02:55:22;;;;;;;11.13;5.03;;;23.20;1.00;;;;;;5092979;28;20027;-88
2022/09/05 02:57:58;;;;;;;12.23;4.70;;;23.20;99.90;;;;;;5093092;28;20032;-88
2022/09/05 03:00:31;;;;;;;12.48;4.80;;;23.20;1.00;;;;;;5092717;28;20028;-88
2022/09/05 03:03:10;;;;;;;9.82;4.53;;;23.20;99.90;;;;;;5092867;28;20110;-88
2022/09/05 03:05:45;;;;;;;9.95;4.80;;;23.20;1.00;;;;;;5074831;28;20032;-88
2022/09/05 03:08:14;;;;;;;11.18;4.60;;;23.10;99.90;;;;;;5092903;28;20027;-88
2022/09/05 03:10:58;;;;;;;10.18;4.75;;;23.10;1.00;;;;;;5074666;28;20032;-88
2022/09/05 03:13:41;;;;;;;13.27;4.57;;;23.00;1.00;;;;;;5092449;28;20027;-88
2022/09/05 03:16:42;;;;;;;14.57;4.95;;;23.10;99.90;;;;;;5092870;28;20024;-87
2022/09/05 03:19:14;;;;;;;14.40;5.35;;;23.10;99.90;;;;;;5092732;28;20036;-88
2022/09/05 03:21:58;;;;;;;10.60;4.75;;;23.10;99.90;;;;;;5074570;28;20023;-87
2022/09/05 03:24:46;;;;;;;10.90;4.82;;;23.10;99.90;;;;;;5073989;28;20024;-88
2022/09/05 03:27:18;;;;;;;9.55;5.07;;;23.10;99.90;;;;;;5092280;28;20028;-88
2022/09/05 03:30:07;;;;;;;10.20;5.18;;;23.10;99.90;;;;;;5092048;28;20028;-87
2022/09/05 03:32:48;;;;;;;10.98;5.43;;;23.00;99.90;;;;;;5092399;28;20040;-88
2022/09/05 03:35:55;;;;;;;13.82;5.43;;;23.00;99.90;;;;;;5092325;28;20570;-87
2022/09/05 03:38:48;;;;;;;10.15;5.32;;;23.00;99.90;;;;;;5092299;28;20064;-88
2022/09/05 03:41:33;;;;;;;10.48;5.72;;;22.90;99.90;;;;;;5092380;28;20028;-87
2022/09/05 03:44:26;;;;;;;15.57;5.75;;;22.90;99.90;;;;;;5091966;28;20028;-88
2022/09/05 03:47:32;;;;;;;11.68;6.40;;;22.90;99.90;;;;;;5073995;28;20046;-87
2022/09/05 03:50:16;;;;;;;10.93;5.95;;;22.90;99.90;;;;;;5092267;28;20036;-88
2022/09/05 03:52:55;;;;;;;11.15;5.93;;;22.90;99.90;;;;;;5092194;28;20028;-88
2022/09/05 03:55:27;;;;;;;12.23;6.07;;;22.90;1.00;;;;;;5074493;28;20028;-88
2022/09/05 03:58:04;;;;;;;13.05;6.40;;;22.90;1.00;;;;;;5073589;28;20028;-87
2022/09/05 04:00:35;;;;;;;12.85;6.13;;;22.70;1.00;;;;;;5091969;28;20039;-87
2022/09/05 04:03:25;;;;;;;13.77;6.53;;;22.70;1.00;;;;;;5092102;28;20042;-87
2022/09/05 04:06:05;;;;;;;11.15;6.13;;;22.80;1.00;;;;;;5074035;28;20373;-88
2022/09/05 04:08:45;;;;;;;11.65;6.60;;;22.90;1.00;;;;;;5091792;28;20032;-87
2022/09/05 04:11:14;;;;;;;12.23;6.50;;;22.90;1.00;;;;;;5091702;28;20388;-87
2022/09/05 04:13:49;;;;;;;10.20;6.28;;;22.90;1.00;;;;;;5092246;28;20025;-86
2022/09/05 04:16:17;;;;;;;13.73;6.78;;;22.80;1.00;;;;;;5084840;28;20515;-87
2022/09/05 04:18:53;;;;;;;12.88;6.53;;;22.90;1.00;;;;;;5112404;28;20403;-87
2022/09/05 04:21:33;;;;;;;13.43;6.32;;;22.80;1.00;;;;;;5112215;28;20019;-87
2022/09/05 04:24:29;;;;;;;11.80;6.80;;;22.70;1.00;;;;;;5112275;28;20031;-87
2022/09/05 04:27:12;;;;;;;14.35;7.00;;;22.80;1.00;;;;;;5111972;28;20052;-88
2022/09/05 04:29:41;;;;;;;14.23;7.05;;;22.70;1.00;;;;;;5106003;28;20048;-88
2022/09/05 04:32:12;;;;;;;9.48;6.72;;;22.70;1.00;;;;;;5091540;28;20500;-88
2022/09/05 04:35:06;;;;;;;9.27;7.18;;;22.70;1.00;;;;;;5091833;28;20154;-88
2022/09/05 04:37:34;;;;;;;13.18;7.20;;;22.70;1.00;;;;;;5075271;28;20024;-88
2022/09/05 04:40:48;;;;;;;13.25;7.65;;;22.80;1.00;;;;;;5096124;28;20035;-87
2022/09/05 04:43:13;;;;;;;10.57;7.60;;;22.70;1.00;;;;;;5077579;28;20036;-87
2022/09/05 04:45:48;;;;;;;15.25;7.25;;;22.70;99.90;;;;;;5095815;28;20028;-88
2022/09/05 04:48:20;;;;;;;14.48;7.88;;;22.70;1.00;;;;;;5095091;28;20031;-87
2022/09/05 04:51:21;;;;;;;14.43;7.80;;;22.70;1.00;;;;;;5077138;28;20024;-88
2022/09/05 04:54:05;;;;;;;10.70;7.43;;;22.70;1.00;;;;;;5093897;28;20032;-88
2022/09/05 04:56:36;;;;;;;13.55;7.70;;;22.70;1.00;;;;;;5095440;28;20395;-87
2022/09/05 04:59:08;;;;;;;13.68;7.93;;;22.70;99.90;;;;;;5077040;28;20043;-87
2022/09/05 05:01:55;;;;;;;16.08;8.02;;;22.70;99.90;;;;;;5095198;28;20024;-88
2022/09/05 05:04:25;;;;;;;10.23;8.00;;;22.70;99.90;;;;;;5094914;28;20028;-88
2022/09/05 05:07:03;;;;;;;12.60;8.18;;;22.60;1.00;;;;;;5095167;28;20070;-88
2022/09/05 05:10:03;;;;;;;16.58;8.68;;;22.60;99.90;;;;;;5095199;28;20024;-87
2022/09/05 05:12:54;;;;;;;16.70;8.90;;;22.60;1.00;;;;;;5076736;28;20100;-87
2022/09/05 05:15:23;;;;;;;14.07;9.07;;;22.70;99.90;;;;;;5094780;28;20024;-87
2022/09/05 05:17:54;;;;;;;10.43;8.75;;;22.60;99.90;;;;;;5094806;28;20512;-87
2022/09/05 05:20:30;;;;;;;15.75;9.18;;;22.70;99.90;;;;;;5095204;28;20024;-86
2022/09/05 05:22:58;;;;;;;15.18;9.45;;;22.70;1.00;;;;;;5094722;28;20024;-87
2022/09/05 05:25:25;;;;;;;15.77;10.35;;;22.60;1.00;;;;;;5094604;28;20035;-87
2022/09/05 05:28:14;;;;;;;14.50;9.68;;;22.60;1.00;;;;;;5095040;28;20023;-87
2022/09/05 05:30:40;;;;;;;18.10;10.32;;;22.50;1.00;;;;;;5094341;28;20032;-87
2022/09/05 05:33:42;;;;;;;16.15;10.07;;;22.50;1.00;;;;;;5094274;28;20576;-87
2022/09/05 05:36:16;;;;;;;15.50;9.73;;;22.60;1.00;;;;;;5093987;28;20085;-87
2022/09/05 05:38:52;;;;;;;20.02;10.43;;;22.70;1.00;;;;;;5092446;28;20555;-88
2022/09/05 05:41:35;;;;;;;24.70;11.15;;;22.70;1.00;;;;;;5094860;28;20388;-88
2022/09/05 05:44:14;;;;;;;16.20;9.45;;;22.80;1.00;;;;;;5094015;28;20496;-88
2022/09/05 05:46:46;;;;;;;17.58;10.10;;;22.80;1.00;;;;;;5095129;28;20028;-89
2022/09/05 05:49:31;;;;;;;17.35;9.82;;;22.80;1.00;;;;;;5093744;28;20021;-88
2022/09/05 05:52:21;;;;;;;15.93;9.50;;;22.80;1.00;;;;;;5076545;28;20361;-88
2022/09/05 05:55:13;;;;;;;17.20;9.63;;;22.80;1.00;;;;;;5094377;28;20023;-88
2022/09/05 05:58:12;;;;;;;15.90;9.40;;;22.70;1.00;;;;;;5094415;28;20047;-88
2022/09/05 06:01:05;;;;;;;13.60;9.23;;;22.80;1.00;;;;;;5094943;28;20145;-88
2022/09/05 06:04:04;;;;;;;13.43;9.90;;;22.90;1.00;;;;;;5094693;28;20040;-89
2022/09/05 06:06:45;;;;;;;13.60;9.35;;;23.00;1.00;;;;;;5094883;28;20035;-90
2022/09/05 06:09:10;;;;;;;13.93;8.55;;;23.20;1.00;;;;;;5094738;28;20380;-90
2022/09/05 06:11:58;;;;;;;14.90;9.00;;;23.00;1.00;;;;;;5094138;28;20032;-89
2022/09/05 06:14:45;;;;;;;12.20;9.77;;;23.20;1.00;;;;;;5094359;28;20024;-89
2022/09/05 06:17:36;;;;;;;14.32;9.50;;;23.20;1.00;;;;;;5113186;28;20069;-89
2022/09/05 06:20:39;;;;;;;15.23;9.15;;;23.20;1.00;;;;;;5114454;28;20059;-89
2022/09/05 06:23:20;;;;;;;16.25;8.43;;;23.30;1.00;;;;;;5114204;28;20044;-89
2022/09/05 06:26:11;;;;;;;11.38;8.85;;;23.30;1.00;;;;;;5115104;28;20028;-89
2022/09/05 06:29:04;;;;;;;10.45;8.75;;;23.20;1.00;;;;;;5114994;28;20032;-89
2022/09/05 06:31:54;;;;;;;11.57;8.77;;;23.10;1.00;;;;;;5074164;28;20508;-89
2022/09/05 06:34:25;;;;;;;10.27;8.55;;;23.20;1.00;;;;;;5074774;28;20035;-87
2022/09/05 06:37:12;;;;;;;16.48;8.27;;;23.20;1.00;;;;;;5092235;28;20028;-87
2022/09/05 06:39:59;;;;;;;12.52;7.90;;;23.20;1.00;;;;;;5093728;28;20036;-86
2022/09/05 06:42:42;;;;;;;10.82;7.63;;;23.20;1.00;;;;;;5093031;28;20472;-87
2022/09/05 06:45:43;;;;;;;11.98;7.65;;;23.30;1.00;;;;;;5075417;28;20480;-87
2022/09/05 06:48:20;;;;;;;10.40;7.47;;;23.40;1.00;;;;;;4992680;28;20046;-91
2022/09/05 06:51:14;;;;;;;12.57;8.20;;;23.50;1.00;;;;;;4976169;28;20049;-92
2022/09/05 06:53:54;;;;;;;12.35;7.65;;;23.60;1.00;;;;;;4992320;28;20481;-87
2022/09/05 06:56:49;;;;;;;10.15;7.03;;;23.50;1.00;;;;;;4991103;28;20062;-87
2022/09/05 06:59:45;;;;;;;12.00;8.15;;;23.70;1.00;;;;;;4991613;28;20402;-87
2022/09/05 07:02:24;;;;;;;12.35;7.72;;;23.80;1.00;;;;;;4990308;28;20533;-87
2022/09/05 07:05:20;;;;;;;10.77;7.13;;;23.80;1.00;;;;;;4991084;28;20601;-87
2022/09/05 07:07:55;;;;;;;10.90;7.40;;;23.90;1.00;;;;;;4952221;29;20035;-87
2022/09/05 07:10:38;;;;;;;11.98;7.60;;;24.10;1.00;;;;;;4940273;29;20035;-87
2022/09/05 07:13:15;;;;;;;11.60;7.75;;;24.00;1.00;;;;;;4933135;29;20040;-87
2022/09/05 07:15:43;;;;;;;9.00;7.03;;;24.10;1.00;;;;;;4938724;29;20031;-87
2022/09/05 07:18:25;;;;;;;10.38;7.25;;;24.20;1.00;;;;;;4952482;29;20050;-87
2022/09/05 07:21:02;;;;;;;8.93;7.00;;;24.10;1.00;;;;;;4951911;29;20074;-87
2022/09/05 07:23:45;;;;;;;12.85;6.97;;;24.00;1.00;;;;;;4981379;28;20132;-87
2022/09/05 07:26:12;;;;;;;8.20;6.30;;;24.10;1.00;;;;;;5030030;28;20069;-87
2022/09/05 07:28:43;;;;;;;8.25;6.65;;;24.20;1.00;;;;;;5030302;28;20022;-87
2022/09/05 07:31:24;;;;;;;9.60;6.28;;;24.30;1.00;;;;;;5029550;28;20088;-87
2022/09/05 07:34:04;;;;;;;8.23;5.50;;;24.30;1.00;;;;;;5047608;28;20057;-87
2022/09/05 07:36:38;;;;;;;6.80;5.35;;;24.60;1.00;;;;;;5040744;28;20475;-86
2022/09/05 07:39:05;;;;;;;6.38;5.13;;;24.50;1.00;;;;;;5021917;28;20108;-86
2022/09/05 07:41:33;;;;;;;9.50;5.50;;;24.70;1.00;;;;;;5010680;28;20113;-87
2022/09/05 07:44:15;;;;;;;6.47;5.40;;;24.70;1.00;;;;;;5047986;28;20396;-87
2022/09/05 07:46:45;;;;;;;7.20;5.15;;;24.70;1.00;;;;;;5076621;28;20059;-87
2022/09/05 07:49:19;;;;;;;7.32;5.40;;;24.80;1.00;;;;;;5091828;28;20077;-86
2022/09/05 07:51:57;;;;;;;10.93;5.70;;;24.80;1.00;;;;;;5093161;28;20024;-87
2022/09/05 07:54:31;;;;;;;8.18;5.53;;;24.90;1.00;;;;;;5092452;28;20108;-88
2022/09/05 07:57:03;;;;;;;6.50;5.15;;;25.10;1.00;;;;;;5092215;28;20032;-87
2022/09/05 07:59:32;;;;;;;9.15;5.50;;;25.30;1.00;;;;;;5092102;28;20441;-88
2022/09/05 08:01:59;;;;;;;9.73;5.57;;;25.40;1.00;;;;;;5091497;28;20056;-86
2022/09/05 08:04:38;;;;;;;6.47;5.40;;;25.20;1.00;;;;;;5090711;28;20067;-87
2022/09/05 08:07:28;;;;;;;12.20;5.43;;;25.30;1.00;;;;;;5091292;28;20028;-87
2022/09/05 08:10:02;;;;;;;8.63;5.53;;;25.50;1.00;;;;;;5073150;28;20039;-88
2022/09/05 08:12:36;;;;;;;7.63;5.55;;;25.40;1.00;;;;;;5093756;28;20047;-88
2022/09/05 08:15:10;;;;;;;6.63;5.13;;;25.30;1.00;;;;;;5096044;28;20487;-88
2022/09/05 08:17:46;;;;;;;9.40;5.25;;;25.30;1.00;;;;;;5096125;28;20043;-87
2022/09/05 08:20:38;;;;;;;9.00;4.85;;;25.60;1.00;;;;;;5096186;28;20099;-88
2022/09/05 08:23:15;;;;;;;8.57;5.53;;;25.50;1.00;;;;;;5091286;28;20051;-88
2022/09/05 08:25:59;;;;;;;13.05;5.80;;;25.40;1.00;;;;;;5090996;28;20024;-87
2022/09/05 08:28:52;;;;;;;11.55;5.30;;;25.60;1.00;;;;;;5095853;28;20028;-88
2022/09/05 08:31:38;;;;;;;9.52;5.57;;;25.80;1.00;;;;;;5095790;28;20496;-88
2022/09/05 08:34:10;;;;;;;7.07;4.32;;;25.90;1.00;;;;;;5085026;28;20062;-87
2022/09/05 08:36:59;;;;;;;7.80;4.82;;;25.60;1.00;;;;;;5111420;28;20016;-88
2022/09/05 08:39:28;;;;;;;8.43;4.78;;;25.80;1.00;;;;;;5075504;28;20381;-88
2022/09/05 08:42:14;;;;;;;7.22;4.78;;;26.10;1.00;;;;;;5057671;28;20052;-88
2022/09/05 08:44:52;;;;;;;7.07;4.43;;;26.20;99.90;;;;;;5075377;28;20407;-88
2022/09/05 08:47:45;;;;;;;8.35;4.53;;;26.50;1.00;;;;;;5075387;28;20415;-88
2022/09/05 08:50:25;;;;;;;6.75;4.35;;;26.50;1.00;;;;;;5075737;28;20518;-88
2022/09/05 08:53:11;;;;;;;11.70;4.82;;;26.50;1.00;;;;;;5075098;28;20021;-88
2022/09/05 08:55:53;;;;;;;10.07;4.57;;;26.90;1.00;;;;;;5075596;28;20035;-88
2022/09/05 08:58:37;;;;;;;4.72;4.10;;;26.80;1.00;;;;;;5075262;28;20564;-87
2022/09/05 09:01:32;;;;;;;5.82;4.13;;;26.90;1.00;;;;;;5075361;28;20063;-88
2022/09/05 09:04:16;;;;;;;8.15;4.18;;;27.10;1.00;;;;;;5067317;28;20038;-88
2022/09/05 09:07:12;;;;;;;4.85;3.83;;;27.00;1.00;;;;;;5075394;28;20063;-87
2022/09/05 09:09:55;;;;;;;6.05;3.90;;;27.00;1.00;;;;;;5075105;28;20028;-88
2022/09/05 09:12:58;;;;;;;8.38;3.90;;;26.80;1.00;;;;;;5075293;28;20032;-88
2022/09/05 09:15:51;;;;;;;5.80;4.20;;;26.60;1.00;;;;;;5078561;28;20025;-87
2022/09/05 09:18:19;;;;;;;7.85;3.72;;;26.60;1.00;;;;;;5059342;28;20505;-88
2022/09/05 09:20:58;;;;;;;9.23;3.75;;;26.70;1.00;;;;;;5095059;28;20384;-88
2022/09/05 09:23:26;;;;;;;8.43;3.95;;;27.00;1.00;;;;;;5094605;28;20082;-88
2022/09/05 09:26:04;;;;;;;7.40;4.22;;;27.00;1.00;;;;;;5094725;28;20099;-89
2022/09/05 09:28:50;;;;;;;8.68;4.30;;;27.50;1.00;;;;;;5092187;28;20047;-88
2022/09/05 09:31:53;;;;;;;8.80;4.35;;;27.60;1.00;;;;;;5096273;28;20154;-88
2022/09/05 09:34:22;;;;;;;5.90;3.72;;;27.70;1.00;;;;;;5094641;28;20081;-88
2022/09/05 09:36:56;;;;;;;9.35;3.10;;;27.80;1.00;;;;;;5094187;28;20107;-87
2022/09/05 09:39:28;;;;;;;7.72;3.22;;;28.10;1.00;;;;;;5094609;28;20040;-88
2022/09/05 09:42:30;;;;;;;7.65;3.45;;;28.20;1.00;;;;;;5098271;28;20083;-88
2022/09/05 09:45:24;;;;;;;5.93;2.53;;;28.40;1.00;;;;;;5079874;28;20853;-87
2022/09/05 09:47:49;;;;;;;6.10;3.15;;;28.60;1.00;;;;;;5094079;28;20028;-88
2022/09/05 09:50:36;;;;;;;6.07;3.30;;;31.20;1.00;;;;;;5094354;28;20035;-87
2022/09/05 09:53:17;;;;;;;6.13;2.63;;;35.30;1.00;;;;;;5094080;28;20073;-87
2022/09/05 09:56:08;;;;;;;6.30;2.72;;;37.70;1.00;;;;;;5100874;28;20019;-87
2022/09/05 09:59:03;;;;;;;7.47;2.70;;;36.60;1.00;;;;;;5114556;28;20087;-88
2022/09/05 10:01:43;;;;;;;7.85;2.90;;;36.70;1.00;;;;;;5114086;28;20534;-88
2022/09/05 10:04:38;;;;;;;5.03;2.42;;;37.90;1.00;;;;;;5111517;28;20027;-88
2022/09/05 10:07:22;;;;;;;5.55;2.88;;;37.10;1.00;;;;;;5075734;28;20062;-88
2022/09/05 10:10:11;;;;;;;4.43;2.47;;;38.20;1.00;;;;;;5094494;28;20024;-88
2022/09/05 10:13:19;;;;;;;3.45;2.25;;;39.00;99.90;;;;;;5093690;28;20039;-89
2022/09/05 10:16:08;;;;;;;6.15;3.20;;;37.60;99.90;;;;;;5093095;28;20028;-88
2022/09/05 10:18:39;;;;;;;5.43;2.63;;;37.00;99.90;;;;;;5093417;28;20039;-88
2022/09/05 10:21:57;;;;;;;6.38;2.42;;;40.40;99.90;;;;;;5094219;28;20095;-88
2022/09/05 10:24:43;;;;;;;5.78;2.67;;;40.10;99.90;;;;;;5088243;28;20064;-88
2022/09/05 10:27:25;;;;;;;6.50;2.25;;;41.10;99.90;;;;;;5073504;28;20408;-88
2022/09/05 10:30:00;;;;;;;4.13;2.47;;;41.70;99.90;;;;;;5077066;28;20071;-88
2022/09/05 10:32:42;;;;;;;4.57;2.50;;;39.80;99.90;;;;;;5088610;28;20508;-88
2022/09/05 10:35:16;;;;;;;7.05;2.70;;;40.00;99.90;;;;;;5073788;28;20557;-88
2022/09/05 10:37:47;;;;;;;4.38;2.30;;;41.30;99.90;;;;;;5092677;28;20060;-88
2022/09/05 10:40:20;;;;;;;4.55;2.40;;;40.90;99.90;;;;;;5093067;28;20131;-89
2022/09/05 10:43:01;;;;;;;6.00;2.53;;;40.80;99.90;;;;;;5093307;28;20077;-89
2022/09/05 10:45:43;;;;;;;5.95;2.20;;;42.90;99.90;;;;;;5093539;28;20580;-86
2022/09/05 10:48:24;;;;;;;5.88;1.88;;;44.10;99.90;;;;;;5093185;28;20031;-87
2022/09/05 10:51:06;;;;;;;6.75;2.28;;;42.70;99.90;;;;;;5093951;28;20491;-88
2022/09/05 10:53:46;;;;;;;6.10;2.10;;;43.30;99.90;;;;;;5093721;28;20032;-89
2022/09/05 10:56:14;;;;;;;7.10;2.50;;;44.50;99.90;;;;;;5094021;28;20016;-90
2022/09/05 10:59:08;;;;;;;2.88;1.90;;;42.70;99.90;;;;;;5092857;28;20499;-90
2022/09/05 11:01:48;;;;;;;4.88;2.65;;;41.00;99.90;;;;;;5094065;28;20020;-89
2022/09/05 11:04:46;;;;;;;3.72;2.30;;;39.80;99.90;;;;;;5092569;28;20476;-87
2022/09/05 11:07:23;;;;;;;4.40;2.00;;;40.50;99.90;;;;;;5077847;28;20077;-87
2022/09/05 11:09:54;;;;;;;6.47;2.42;;;39.30;99.90;;;;;;5092994;28;20063;-87
2022/09/05 11:12:31;;;;;;;4.97;2.20;;;41.90;99.90;;;;;;5091871;28;20478;-87
2022/09/05 11:15:00;;;;;;;7.32;2.20;;;39.50;99.90;;;;;;5086743;28;20420;-87
2022/09/05 11:17:35;;;;;;;5.90;2.13;;;41.20;99.90;;;;;;5088847;28;20369;-87
2022/09/05 11:20:46;;;;;;;6.38;2.25;;;42.30;99.90;;;;;;5093139;28;20484;-87
2022/09/05 11:23:20;;;;;;;6.75;2.47;;;42.50;99.90;;;;;;5072313;28;20472;-87
2022/09/05 11:25:54;;;;;;;6.72;2.47;;;41.10;99.90;;;;;;5072642;28;20549;-87
2022/09/05 11:28:52;;;;;;;5.93;2.33;;;43.20;99.90;;;;;;5071953;28;20039;-87
2022/09/05 11:31:22;;;;;;;7.10;2.10;;;41.70;99.90;;;;;;5091242;28;20395;-87
2022/09/05 11:34:05;;;;;;;6.10;2.10;;;42.70;99.90;;;;;;5091441;28;20474;-87
2022/09/05 11:36:44;;;;;;;7.53;2.50;;;43.40;99.90;;;;;;5072048;28;20037;-87
2022/09/05 11:39:22;;;;;;;8.35;2.70;;;43.30;99.90;;;;;;5082411;28;20055;-89
2022/09/05 11:42:09;;;;;;;5.85;2.70;;;41.70;99.90;;;;;;5092336;28;20032;-91
2022/09/05 11:44:51;;;;;;;7.13;2.20;;;41.90;99.90;;;;;;5093370;28;20074;-91
2022/09/05 11:47:47;;;;;;;6.00;2.50;;;39.50;99.90;;;;;;5092320;28;20024;-91
2022/09/05 11:50:58;;;;;;;7.53;2.40;;;40.90;99.90;;;;;;5092741;28;20091;-91
2022/09/05 11:53:57;;;;;;;9.02;2.47;;;41.40;99.90;;;;;;5093024;28;20017;-91
2022/09/05 11:56:35;;;;;;;8.35;2.38;;;38.10;99.90;;;;;;5092686;28;20028;-91
2022/09/05 11:59:21;;;;;;;6.05;2.30;;;39.50;99.90;;;;;;5092708;28;20043;-91
2022/09/05 12:02:13;;;;;;;9.05;2.60;;;40.80;99.90;;;;;;5093009;28;20585;-91
2022/09/05 12:04:41;;;;;;;7.45;2.47;;;40.30;99.90;;;;;;5087976;28;20044;-91
2022/09/05 12:07:30;;;;;;;8.65;2.47;;;39.90;99.90;;;;;;5092738;28;20028;-91
2022/09/05 12:10:21;;;;;;;5.60;2.10;;;40.30;99.90;;;;;;5092292;28;20124;-91
2022/09/05 12:13:01;;;;;;;7.53;2.53;;;41.50;99.90;;;;;;5092739;28;20065;-92
2022/09/05 12:15:36;;;;;;;8.80;2.97;;;40.90;99.90;;;;;;5092504;28;20028;-91
2022/09/05 12:18:19;;;;;;;10.70;2.63;;;42.70;99.90;;;;;;5092776;28;20035;-91
2022/09/05 12:20:59;;;;;;;7.78;2.60;;;42.50;99.90;;;;;;5093073;28;20126;-91
2022/09/05 12:23:38;;;;;;;8.52;2.55;;;41.40;99.90;;;;;;5092668;28;20013;-92
2022/09/05 12:26:09;;;;;;;8.63;2.78;;;40.20;99.90;;;;;;5092415;28;20032;-91
2022/09/05 12:29:17;;;;;;;6.25;2.03;;;42.90;99.90;;;;;;5074899;28;20501;-91
2022/09/05 12:31:50;;;;;;;7.93;2.28;;;43.40;99.90;;;;;;5072005;28;20055;-91
2022/09/05 12:34:55;;;;;;;13.90;2.60;;;42.50;99.90;;;;;;5072636;28;20484;-91
2022/09/05 12:37:21;;;;;;;10.70;2.38;;;44.00;99.90;;;;;;5072187;28;20070;-92
2022/09/05 12:39:53;;;;;;;7.22;2.50;;;43.20;99.90;;;;;;5072656;28;20052;-92
2022/09/05 12:42:49;;;;;;;10.82;2.92;;;44.30;99.90;;;;;;5072288;28;20031;-92
2022/09/05 12:45:32;;;;;;;8.82;2.58;;;43.40;99.90;;;;;;5072183;28;20029;-92
2022/09/05 12:48:32;;;;;;;8.25;2.78;;;42.10;99.90;;;;;;5072201;28;20131;-92
2022/09/05 12:51:00;;;;;;;10.73;3.00;;;42.00;99.90;;;;;;5072312;28;20027;-92
2022/09/05 12:53:39;;;;;;;7.65;2.50;;;40.20;99.90;;;;;;5072094;28;20400;-91
2022/09/05 12:56:42;;;;;;;8.18;2.95;;;39.40;99.90;;;;;;5074772;28;20021;-91
2022/09/05 12:59:20;;;;;;;7.75;2.92;;;39.70;99.90;;;;;;5076798;28;20032;-91
2022/09/05 13:02:01;;;;;;;7.88;2.28;;;39.90;99.90;;;;;;5075968;28;20069;-91
2022/09/05 13:04:29;;;;;;;12.70;2.88;;;39.60;99.90;;;;;;5075821;28;20036;-91
2022/09/05 13:07:08;;;;;;;8.68;2.78;;;38.00;99.90;;;;;;5075461;28;20027;-92
2022/09/05 13:09:42;;;;;;;14.55;2.92;;;38.10;99.90;;;;;;5075547;28;20032;-91
2022/09/05 13:12:18;;;;;;;9.13;3.28;;;38.50;99.90;;;;;;5075541;28;20025;-92
2022/09/05 13:15:02;;;;;;;11.73;2.80;;;35.80;99.90;;;;;;5075510;28;20032;-91
2022/09/05 13:17:37;;;;;;;8.60;2.72;;;37.10;99.90;;;;;;5095723;28;20388;-91
2022/09/05 13:20:32;;;;;;;10.63;3.05;;;39.60;99.90;;;;;;5096015;28;20043;-91
2022/09/05 13:23:19;;;;;;;9.02;2.47;;;38.40;99.90;;;;;;5095325;28;20036;-91
2022/09/05 13:25:56;;;;;;;14.05;3.15;;;36.80;99.90;;;;;;5095652;28;20036;-90
2022/09/05 13:28:34;;;;;;;10.48;2.70;;;36.80;99.90;;;;;;5095634;28;20055;-91
2022/09/05 13:31:06;;;;;;;10.23;2.70;;;36.50;99.90;;;;;;5095114;28;20048;-91
2022/09/05 13:33:36;;;;;;;9.07;3.28;;;37.00;99.90;;;;;;5095356;28;20053;-91
2022/09/05 13:36:09;;;;;;;6.82;2.85;;;38.40;99.90;;;;;;5095778;28;20027;-91
2022/09/05 13:38:54;;;;;;;7.80;2.50;;;39.00;99.90;;;;;;5094831;28;20032;-91
2022/09/05 13:41:29;;;;;;;11.65;2.63;;;38.40;99.90;;;;;;5095387;28;20020;-91
2022/09/05 13:44:01;;;;;;;6.85;2.60;;;37.10;99.90;;;;;;5095352;28;20043;-91
2022/09/05 13:46:46;;;;;;;12.18;3.00;;;36.20;99.90;;;;;;5095913;28;20038;-91
2022/09/05 13:49:33;;;;;;;7.93;2.67;;;37.60;99.90;;;;;;5095327;28;20495;-92
2022/09/05 13:51:59;;;;;;;13.25;2.78;;;38.30;99.90;;;;;;5095311;28;20412;-91
2022/09/05 13:54:35;;;;;;;13.10;3.10;;;38.40;99.90;;;;;;5094752;28;20036;-91
2022/09/05 13:57:19;;;;;;;16.08;2.70;;;38.90;99.90;;;;;;5095350;28;20039;-91
2022/09/05 14:00:09;;;;;;;6.88;2.80;;;37.20;99.90;;;;;;5095147;28;20039;-91
2022/09/05 14:03:12;;;;;;;11.52;3.28;;;36.20;99.90;;;;;;5077293;28;20024;-91
2022/09/05 14:05:50;;;;;;;9.02;2.90;;;37.40;99.90;;;;;;5076589;28;20480;-92